Time;durP1;ratioP1;P1;durP2;ratioP2;P2;SDS_P1;SDS_P2;PMS_P1;PMS_P2;Temp;Humidity;BMP_temperature;BMP_pressure;BME280_temperature;BME280_humidity;BME280_pressure;Samples;Min_cycle;Max_cycle;Signal;HPM_P1;HPM_P2
2022/08/24 00:02:21;;;;;;;4.37;2.30;;;;;;;18.17;100.00;100755.53;7393205;19;20384;-49
2022/08/24 00:04:51;;;;;;;5.00;2.53;;;;;;;18.20;100.00;100752.94;7387020;19;20775;-51
2022/08/24 00:07:24;;;;;;;6.60;2.67;;;;;;;18.19;100.00;100748.59;7393630;19;20380;-52
2022/08/24 00:09:56;;;;;;;5.80;2.43;;;;;;;18.21;100.00;100733.81;7382991;19;20406;-53
2022/08/24 00:12:26;;;;;;;7.77;3.67;;;;;;;18.19;100.00;100735.53;7393145;19;20398;-53
2022/08/24 00:14:56;;;;;;;5.90;2.53;;;;;;;18.16;100.00;100738.09;7383061;19;20433;-59
2022/08/24 00:17:25;;;;;;;9.27;2.23;;;;;;;18.11;100.00;100723.25;7393012;19;20390;-52
2022/08/24 00:19:55;;;;;;;6.60;2.30;;;;;;;18.13;100.00;100705.88;7386537;19;20478;-53
2022/08/24 00:22:27;;;;;;;7.33;2.40;;;;;;;18.15;100.00;100714.63;7392841;19;20388;-56
2022/08/24 00:24:58;;;;;;;7.10;3.17;;;;;;;18.09;100.00;100712.81;7385710;19;20415;-53
2022/08/24 00:27:29;;;;;;;8.17;2.47;;;;;;;18.00;100.00;100695.28;7392816;19;20930;-56
2022/08/24 00:29:59;;;;;;;8.63;2.20;;;;;;;17.99;100.00;100692.69;7385561;19;20418;-54
2022/08/24 00:32:28;;;;;;;4.80;2.10;;;;;;;17.94;100.00;100683.06;7392957;19;20398;-56
2022/08/24 00:34:58;;;;;;;8.20;2.43;;;;;;;17.98;100.00;100680.47;7383641;19;20818;-56
2022/08/24 00:37:30;;;;;;;5.87;2.97;;;;;;;17.92;100.00;100666.50;7395182;19;20392;-55
2022/08/24 00:40:00;;;;;;;7.90;2.20;;;;;;;17.88;100.00;100669.06;7386098;19;20419;-54
2022/08/24 00:42:30;;;;;;;4.67;2.20;;;;;;;17.90;100.00;100654.31;7392402;19;20390;-53
2022/08/24 00:45:00;;;;;;;4.80;2.13;;;;;;;17.84;100.00;100641.19;7384048;19;20672;-56
2022/08/24 00:47:33;;;;;;;6.47;2.00;;;;;;;17.87;100.00;100630.78;7392157;19;20743;-54
2022/08/24 00:50:08;;;;;;;6.70;2.47;;;;;;;17.80;100.00;100640.28;7384835;19;20418;-56
2022/08/24 00:52:42;;;;;;;5.87;2.53;;;;;;;17.81;100.00;100621.16;7391683;19;20744;-56
2022/08/24 00:55:16;;;;;;;5.33;2.30;;;;;;;17.83;100.00;100634.22;7382727;19;20426;-55
2022/08/24 00:57:48;;;;;;;7.07;2.30;;;;;;;17.74;100.00;100621.97;7392192;19;20399;-52
2022/08/24 01:00:20;;;;;;;5.17;2.53;;;;;;;17.74;100.00;100615.00;7385017;19;20415;-52
2022/08/24 01:02:53;;;;;;;7.87;2.73;;;;;;;17.62;100.00;100607.94;7390989;19;20394;-59
2022/08/24 01:05:23;;;;;;;8.20;2.83;;;;;;;17.64;100.00;100601.00;7382388;19;20443;-52
2022/08/24 01:07:55;;;;;;;7.07;2.43;;;;;;;17.65;100.00;100587.09;7399058;19;20383;-59
2022/08/24 01:10:27;;;;;;;5.33;2.50;;;;;;;17.60;100.00;100591.41;7392597;19;20415;-52
2022/08/24 01:12:59;;;;;;;4.17;1.93;;;;;;;17.54;100.00;100581.75;7397169;19;20410;-54
2022/08/24 01:15:30;;;;;;;5.10;2.60;;;;;;;17.59;100.00;100568.75;7395089;19;21336;-58
2022/08/24 01:20:42;;;;;;;5.50;2.30;;;;;;;17.53;100.00;100555.66;7397900;19;20415;-55
2022/08/24 01:23:17;;;;;;;4.87;2.07;;;;;;;17.49;100.00;100551.28;7389027;19;20411;-55
2022/08/24 01:25:49;;;;;;;6.37;2.20;;;;;;;17.46;100.00;100531.28;7398360;19;20709;-56
2022/08/24 01:28:20;;;;;;;6.70;2.17;;;;;;;17.50;100.00;100527.84;7391071;19;21020;-59
2022/08/24 01:30:56;;;;;;;6.00;2.53;;;;;;;17.53;100.00;100521.75;7398183;19;20820;-59
2022/08/24 01:33:28;;;;;;;6.03;2.60;;;;;;;17.52;100.00;100530.44;7390443;19;20413;-56
2022/08/24 01:36:00;;;;;;;5.20;2.47;;;;;;;17.48;100.00;100513.91;7395912;19;20380;-55
2022/08/24 01:38:30;;;;;;;4.90;2.50;;;;;;;17.39;100.00;100508.59;7386350;19;20399;-59
2022/08/24 01:41:04;;;;;;;5.87;2.63;;;;;;;17.37;100.00;100500.75;7398121;19;20390;-52
2022/08/24 01:43:33;;;;;;;5.53;2.13;;;;;;;17.29;100.00;100486.78;7390361;19;20429;-54
2022/08/24 01:46:05;;;;;;;3.87;2.23;;;;;;;17.28;100.00;100475.47;7397805;19;20386;-56
2022/08/24 01:48:35;;;;;;;8.80;3.30;;;;;;;17.22;100.00;100464.13;7391502;19;20497;-53
2022/08/24 01:51:05;;;;;;;5.17;2.50;;;;;;;17.27;100.00;100452.88;7397509;19;20394;-54
2022/08/24 01:53:35;;;;;;;7.53;2.90;;;;;;;17.36;100.00;100454.69;7389482;19;20413;-58
2022/08/24 01:56:08;;;;;;;6.53;3.07;;;;;;;17.34;100.00;100452.94;7395371;19;20393;-51
2022/08/24 01:58:37;;;;;;;6.40;2.77;;;;;;;17.29;100.00;100455.50;7391367;19;20408;-51
2022/08/24 02:01:07;;;;;;;6.53;2.80;;;;;;;17.29;100.00;100445.06;7397113;19;20386;-55
2022/08/24 02:03:37;;;;;;;6.40;2.97;;;;;;;17.28;100.00;100432.91;7390354;19;20924;-51
2022/08/24 02:06:08;;;;;;;5.90;2.70;;;;;;;17.30;100.00;100430.28;7397772;19;20407;-52
2022/08/24 02:08:37;;;;;;;6.60;3.10;;;;;;;17.16;100.00;100419.75;7390124;19;20410;-54
2022/08/24 02:11:10;;;;;;;7.37;3.20;;;;;;;17.12;100.00;100406.69;7396740;19;20798;-56
2022/08/24 02:13:41;;;;;;;6.63;3.30;;;;;;;17.05;100.00;100398.78;7388522;19;20407;-57
2022/08/24 02:16:10;;;;;;;169.33;82.80;;;;;;;17.17;100.00;100364.16;7395183;19;20396;-55
2022/08/24 02:18:41;;;;;;;23.23;9.47;;;;;;;17.17;100.00;100361.56;7389532;19;20418;-56
2022/08/24 02:21:11;;;;;;;48.50;24.40;;;;;;;17.22;100.00;100350.28;7400664;19;20469;-51
2022/08/24 02:23:42;;;;;;;38.93;20.47;;;;;;;17.14;100.00;100350.22;7388655;19;20425;-55
2022/08/24 02:26:15;;;;;;;22.03;11.53;;;;;;;17.28;100.00;100339.91;7396385;19;20498;-55
2022/08/24 02:28:45;;;;;;;6.00;3.27;;;;;;;17.14;100.00;100358.03;7390947;19;20433;-58
2022/08/24 02:31:15;;;;;;;20.57;9.60;;;;;;;17.06;100.00;100337.97;7395881;19;20386;-55
2022/08/24 02:33:45;;;;;;;11.80;5.57;;;;;;;17.12;100.00;100333.72;7389178;19;20402;-56
2022/08/24 02:36:16;;;;;;;9.90;4.60;;;;;;;17.06;100.00;100343.19;7394418;19;20398;-52
2022/08/24 02:38:54;;;;;;;8.83;3.83;;;;;;;16.99;100.00;100342.25;7389684;19;20405;-51
2022/08/24 02:41:27;;;;;;;8.70;3.57;;;;;;;16.91;100.00;100326.56;7396093;19;20394;-56
2022/08/24 02:43:57;;;;;;;7.00;3.70;;;;;;;16.92;100.00;100319.63;7387982;19;20402;-56
2022/08/24 02:46:28;;;;;;;7.83;4.80;;;;;;;16.91;100.00;100318.72;7395887;19;20397;-49
2022/08/24 02:48:59;;;;;;;6.97;2.93;;;;;;;16.90;100.00;100318.72;7388822;19;20418;-53
2022/08/24 02:51:43;;;;;;;5.07;3.00;;;;;;;16.89;100.00;100302.22;7395985;19;20395;-54
2022/08/24 02:54:17;;;;;;;8.07;3.10;;;;;;;16.87;100.00;100299.59;7387041;19;20428;-51
2022/08/24 02:56:50;;;;;;;8.60;2.60;;;;;;;16.87;100.00;100297.00;7394293;19;20392;-54
2022/08/24 02:59:20;;;;;;;6.77;3.17;;;;;;;16.85;100.00;100296.13;7391345;19;20460;-54
2022/08/24 03:01:49;;;;;;;7.80;3.50;;;;;;;16.85;100.00;100303.03;7395560;19;20400;-56
2022/08/24 03:04:19;;;;;;;7.80;3.60;;;;;;;16.82;100.00;100303.03;7388331;19;20488;-53
2022/08/24 03:06:49;;;;;;;5.23;2.90;;;;;;;16.91;100.00;100299.63;7395257;19;20921;-51
2022/08/24 03:09:19;;;;;;;9.33;3.23;;;;;;;16.84;100.00;100296.97;7387298;19;20419;-52
2022/08/24 03:11:55;;;;;;;8.67;3.30;;;;;;;16.86;100.00;100290.03;7397018;19;20412;-57
2022/08/24 03:14:24;;;;;;;5.00;3.00;;;;;;;16.82;100.00;100296.06;7387840;19;20435;-53
2022/08/24 03:16:54;;;;;;;7.87;3.03;;;;;;;16.86;100.00;100295.25;7393499;19;20384;-53
2022/08/24 03:19:23;;;;;;;6.93;3.10;;;;;;;16.81;100.00;100294.34;7387739;19;20413;-55
2022/08/24 03:21:53;;;;;;;8.50;2.90;;;;;;;16.68;100.00;100295.97;7394945;19;20828;-59
2022/08/24 03:24:22;;;;;;;8.40;3.80;;;;;;;16.72;100.00;100286.47;7386931;19;20404;-59
2022/08/24 03:26:55;;;;;;;7.23;3.10;;;;;;;16.56;100.00;100281.09;7394632;19;20388;-59
2022/08/24 03:29:24;;;;;;;11.87;3.90;;;;;;;16.62;100.00;100263.78;7385512;19;20440;-53
2022/08/24 03:31:55;;;;;;;11.30;4.10;;;;;;;16.54;100.00;100271.50;7394341;19;20401;-52
2022/08/24 03:34:26;;;;;;;6.40;3.40;;;;;;;16.59;100.00;100273.31;7386860;19;20770;-50
2022/08/24 03:36:56;;;;;;;9.03;4.50;;;;;;;16.69;100.00;100257.75;7392912;19;20393;-52
2022/08/24 03:39:26;;;;;;;8.53;4.10;;;;;;;16.98;100.00;100263.19;7386167;19;20763;-55
2022/08/24 03:41:58;;;;;;;13.83;6.10;;;;;;;17.01;100.00;100278.00;7394188;19;20919;-55
2022/08/24 03:44:27;;;;;;;18.43;10.40;;;;;;;16.91;100.00;100284.88;7386347;19;20452;-55
2022/08/24 03:46:57;;;;;;;34.97;19.27;;;;;;;16.94;100.00;100287.50;7394086;19;20389;-55
2022/08/24 03:49:27;;;;;;;40.30;24.43;;;;;;;16.91;100.00;100304.84;7387380;19;20421;-57
2022/08/24 03:51:56;;;;;;;44.63;26.93;;;;;;;16.94;100.00;100310.06;7393737;19;20415;-56
2022/08/24 03:54:25;;;;;;;41.80;22.90;;;;;;;16.82;100.00;100319.53;7385111;19;20933;-54
2022/08/24 03:56:58;;;;;;;20.73;11.80;;;;;;;16.93;100.00;100318.75;7392442;19;20723;-51
2022/08/24 03:59:27;;;;;;;26.70;16.67;;;;;;;16.79;100.00;100319.50;7385651;19;20952;-54
2022/08/24 04:01:57;;;;;;;16.70;9.83;;;;;;;16.87;100.00;100317.84;7393928;19;20853;-55
2022/08/24 04:04:28;;;;;;;12.47;7.43;;;;;;;17.06;100.00;100328.44;7386114;19;20405;-57
2022/08/24 04:06:57;;;;;;;12.07;6.90;;;;;;;17.05;100.00;100344.06;7393666;19;20727;-56
2022/08/24 04:09:27;;;;;;;15.90;7.67;;;;;;;16.99;100.00;100344.88;7386043;19;20833;-56
2022/08/24 04:12:00;;;;;;;11.80;6.13;;;;;;;17.08;100.00;100347.56;7393547;19;20393;-52
2022/08/24 04:14:29;;;;;;;10.93;5.90;;;;;;;17.06;100.00;100354.50;7384079;19;20409;-56
2022/08/24 04:16:59;;;;;;;11.23;6.17;;;;;;;16.94;100.00;100354.38;7394656;19;20404;-57
2022/08/24 04:19:29;;;;;;;9.20;4.70;;;;;;;17.00;100.00;100354.41;7387039;19;20441;-53
2022/08/24 04:21:59;;;;;;;7.80;3.97;;;;;;;16.94;100.00;100343.94;7393057;19;20941;-58
2022/08/24 04:24:30;;;;;;;6.70;4.13;;;;;;;16.85;100.00;100335.19;7383854;19;20935;-53
2022/08/24 04:27:02;;;;;;;6.57;3.53;;;;;;;16.83;100.00;100339.50;7395412;19;20931;-52
2022/08/24 04:29:34;;;;;;;6.40;3.63;;;;;;;17.00;100.00;100321.44;7386245;19;20418;-55
2022/08/24 04:32:04;;;;;;;6.37;3.80;;;;;;;17.11;100.00;100325.88;7392641;19;20384;-57
2022/08/24 04:34:34;;;;;;;5.20;3.27;;;;;;;17.01;100.00;100340.53;7385974;19;20429;-58
2022/08/24 04:37:04;;;;;;;8.20;4.23;;;;;;;16.50;100.00;100322.69;7390976;19;20392;-59
2022/08/24 04:39:40;;;;;;;8.53;3.40;;;;;;;16.25;100.00;100270.38;7385256;19;20431;-52
2022/08/24 04:42:13;;;;;;;10.03;4.20;;;;;;;16.19;100.00;100249.47;7399930;19;20381;-53
2022/08/24 04:44:42;;;;;;;7.07;3.20;;;;;;;16.09;100.00;100225.09;7391031;19;20423;-52
2022/08/24 04:47:12;;;;;;;12.00;4.33;;;;;;;15.99;100.00;100198.09;7399544;19;20384;-57
2022/08/24 04:49:41;;;;;;;10.03;3.80;;;;;;;15.89;100.00;100181.50;7392967;19;20426;-56
2022/08/24 04:52:11;;;;;;;7.33;4.00;;;;;;;15.95;100.00;100139.13;7399405;19;20738;-53
2022/08/24 04:54:40;;;;;;;9.70;4.30;;;;;;;15.98;100.00;100125.25;7392151;19;20430;-56
2022/08/24 04:57:12;;;;;;;8.20;3.70;;;;;;;15.98;100.00;100122.63;7398884;19;20549;-58
2022/08/24 04:59:47;;;;;;;5.93;3.70;;;;;;;15.95;100.00;100113.09;7392939;19;20441;-56
2022/08/24 05:02:17;;;;;;;6.90;3.50;;;;;;;15.85;100.00;100099.06;7400042;19;20386;-55
2022/08/24 05:04:47;;;;;;;9.07;3.70;;;;;;;15.94;100.00;100087.91;7391060;19;20505;-50
2022/08/24 05:07:17;;;;;;;8.77;4.50;;;;;;;15.98;100.00;100073.22;7398890;19;20393;-51
2022/08/24 05:09:46;;;;;;;5.30;3.47;;;;;;;16.00;100.00;100061.97;7392158;19;20416;-51
2022/08/24 05:12:23;;;;;;;5.80;3.40;;;;;;;16.01;100.00;100058.50;7399064;19;20468;-55
2022/08/24 05:14:52;;;;;;;6.97;3.97;;;;;;;16.02;100.00;100049.88;7391795;19;20413;-51
2022/08/24 05:17:22;;;;;;;5.77;3.50;;;;;;;16.10;100.00;100033.44;7397094;19;20996;-56
2022/08/24 05:19:51;;;;;;;9.87;4.03;;;;;;;16.21;100.00;100037.00;7391812;19;20414;-50
2022/08/24 05:22:22;;;;;;;10.67;4.70;;;;;;;16.20;100.00;100033.50;7398594;19;20907;-54
2022/08/24 05:24:52;;;;;;;8.93;5.40;;;;;;;16.19;100.00;100036.09;7390345;19;20413;-53
2022/08/24 05:27:25;;;;;;;8.33;3.73;;;;;;;16.30;100.00;100029.22;7398039;19;20394;-52
2022/08/24 05:29:55;;;;;;;11.10;5.00;;;;;;;16.33;100.00;100028.38;7391790;19;20760;-55
2022/08/24 05:32:24;;;;;;;11.27;5.10;;;;;;;16.36;100.00;100022.34;7398298;19;20397;-58
2022/08/24 05:34:54;;;;;;;9.83;5.43;;;;;;;16.39;100.00;100030.13;7390694;19;20418;-55
2022/08/24 05:37:23;;;;;;;8.80;3.90;;;;;;;16.42;100.00;100023.22;7396458;19;20800;-52
2022/08/24 05:39:53;;;;;;;11.03;4.07;;;;;;;16.48;100.00;100017.19;7390214;19;20420;-57
2022/08/24 05:42:25;;;;;;;9.80;5.00;;;;;;;16.60;100.00;100016.38;7397918;19;20425;-51
2022/08/24 05:44:55;;;;;;;9.83;4.50;;;;;;;16.66;100.00;100016.41;7390812;19;20412;-55
2022/08/24 05:47:24;;;;;;;5.93;3.60;;;;;;;16.71;100.00;100017.31;7397217;19;20953;-57
2022/08/24 05:49:54;;;;;;;5.40;3.80;;;;;;;16.72;100.00;100016.44;7390144;19;20420;-55
2022/08/24 05:52:24;;;;;;;8.97;4.73;;;;;;;16.79;100.00;100021.69;7395021;19;21039;-52
2022/08/24 05:54:54;;;;;;;8.23;3.90;;;;;;;16.83;100.00;100029.50;7390244;19;20444;-56
2022/08/24 05:57:27;;;;;;;8.53;3.63;;;;;;;16.88;100.00;100025.19;7396173;19;20392;-53
2022/08/24 05:59:57;;;;;;;7.60;4.73;;;;;;;16.97;100.00;100031.31;7390251;19;20418;-55
2022/08/24 06:02:26;;;;;;;6.60;3.90;;;;;;;17.20;100.00;100033.16;7397114;19;20407;-58
2022/08/24 06:04:56;;;;;;;10.60;5.53;;;;;;;17.58;100.00;100034.97;7389477;19;20953;-51
2022/08/24 06:07:26;;;;;;;9.30;4.80;;;;;;;17.71;100.00;100061.06;7396973;19;20375;-58
2022/08/24 06:09:56;;;;;;;9.60;4.53;;;;;;;17.72;100.00;100078.44;7389975;19;20426;-57
2022/08/24 06:12:49;;;;;;;5.83;3.90;;;;;;;17.75;100.00;100099.34;7396760;19;20382;-52
2022/08/24 06:15:19;;;;;;;7.60;3.90;;;;;;;17.78;100.00;100115.88;7388889;19;20414;-55
2022/08/24 06:17:48;;;;;;;5.87;2.90;;;;;;;17.92;100.00;100126.34;7395555;19;20387;-56
2022/08/24 06:20:18;;;;;;;11.03;4.37;;;;;;;18.05;100.00;100128.97;7391148;19;20434;-53
2022/08/24 06:22:48;;;;;;;10.60;4.20;;;;;;;18.15;100.00;100146.38;7395764;19;20938;-57
2022/08/24 06:28:03;;;;;;;10.67;5.50;;;;;;;18.37;100.00;100169.91;7396385;19;20383;-57
2022/08/24 06:30:33;;;;;;;16.97;9.03;;;;;;;18.39;100.00;100186.44;7395871;19;20414;-59
2022/08/24 06:33:03;;;;;;;17.57;9.57;;;;;;;18.46;100.00;100193.38;7389145;19;20398;-57
2022/08/24 06:35:33;;;;;;;33.60;14.70;;;;;;;18.55;100.00;100202.13;7395365;19;21338;-57
2022/08/24 06:38:03;;;;;;;14.13;6.87;;;;;;;18.59;100.00;100216.91;7388947;19;20399;-54
2022/08/24 06:40:33;;;;;;;11.50;6.47;;;;;;;18.67;100.00;100222.97;7395704;19;20387;-48
2022/08/24 06:43:06;;;;;;;16.07;8.93;;;;;;;18.72;100.00;100228.22;7389711;19;20395;-54
2022/08/24 06:45:36;;;;;;;13.73;8.10;;;;;;;18.81;100.00;100238.66;7394981;19;20823;-56
2022/08/24 06:48:06;;;;;;;9.33;4.60;;;;;;;18.69;100.00;100247.38;7388941;19;20387;-57
2022/08/24 06:50:36;;;;;;;6.60;4.03;;;;;;;18.66;100.00;100238.69;7395358;19;20726;-56
2022/08/24 06:53:05;;;;;;;9.50;4.20;;;;;;;18.68;100.00;100240.44;7387899;19;20388;-59
2022/08/24 06:55:35;;;;;;;12.23;3.63;;;;;;;18.83;100.00;100243.91;7394844;19;20372;-51
2022/08/24 06:58:07;;;;;;;10.30;4.00;;;;;;;18.86;100.00;100246.50;7388271;19;20384;-50
2022/08/24 07:00:37;;;;;;;6.37;2.97;;;;;;;18.88;100.00;100248.25;7395005;19;20909;-57
2022/08/24 07:03:06;;;;;;;9.67;4.30;;;;;;;18.99;100.00;100257.81;7382470;19;20399;-51
2022/08/24 07:05:36;;;;;;;11.63;5.93;;;;;;;18.98;100.00;100267.38;7398078;19;20832;-54
2022/08/24 07:08:09;;;;;;;10.73;4.20;;;;;;;19.06;100.00;100271.81;7388837;19;20387;-56
2022/08/24 07:10:39;;;;;;;11.33;4.20;;;;;;;19.09;100.00;100277.00;7394553;19;20391;-53
2022/08/24 07:13:12;;;;;;;8.03;4.53;;;;;;;19.20;100.00;100285.72;7387828;19;20399;-52
2022/08/24 07:15:42;;;;;;;7.03;3.43;;;;;;;19.30;100.00;100291.81;7394389;19;20401;-52
2022/08/24 07:18:14;;;;;;;9.73;4.03;;;;;;;19.41;100.00;100313.59;7387558;19;20390;-53
2022/08/24 07:20:44;;;;;;;8.20;3.70;;;;;;;19.49;100.00;100316.16;7394600;19;20455;-55
2022/08/24 07:23:13;;;;;;;10.47;4.00;;;;;;;19.52;100.00;100330.97;7387576;19;20422;-55
2022/08/24 07:25:43;;;;;;;7.83;3.80;;;;;;;19.60;100.00;100336.22;7394033;19;20392;-55
2022/08/24 07:28:21;;;;;;;9.13;4.03;;;;;;;19.74;100.00;100338.78;7388826;19;20383;-51
2022/08/24 07:31:00;;;;;;;8.23;3.80;;;;;;;19.87;100.00;100350.06;7394417;19;20736;-52
2022/08/24 07:33:30;;;;;;;7.17;3.20;;;;;;;19.87;100.00;100363.16;7387420;19;20407;-57
2022/08/24 07:35:59;;;;;;;8.80;3.33;;;;;;;19.89;100.00;100374.53;7393901;19;20402;-55
2022/08/24 07:38:29;;;;;;;7.33;2.90;;;;;;;19.86;100.00;100391.09;7385966;19;21046;-59
2022/08/24 07:41:01;;;;;;;6.57;3.20;;;;;;;20.01;100.00;100405.94;7394120;19;20379;-53
2022/08/24 07:43:53;;;;;;;7.63;3.17;;;;;;;20.12;100.00;100412.88;7386530;19;20419;-53
2022/08/24 07:46:23;;;;;;;6.90;2.97;;;;;;;20.27;100.00;100415.44;7393979;19;20388;-59
2022/08/24 07:48:52;;;;;;;5.27;3.37;;;;;;;20.34;100.00;100432.88;7387402;19;20419;-56
2022/08/24 07:51:41;;;;;;;7.20;3.67;;;;;;;20.45;100.00;100452.94;7393829;19;20395;-56
2022/08/24 07:54:15;;;;;;;14.43;3.70;;;;;;;20.39;100.00;100471.28;7386913;19;20411;-56
2022/08/24 07:56:44;;;;;;;5.80;3.40;;;;;;;20.44;100.00;100478.25;7393638;19;20392;-55
2022/08/24 07:59:16;;;;;;;8.50;4.37;;;;;;;20.53;100.00;100482.59;7386698;19;20415;-56
2022/08/24 08:01:46;;;;;;;8.17;3.20;;;;;;;20.63;100.00;100494.75;7393354;19;20906;-54
2022/08/24 08:04:20;;;;;;;9.77;4.23;;;;;;;20.73;100.00;100502.59;7383733;19;20403;-54
2022/08/24 08:06:50;;;;;;;7.10;3.10;;;;;;;20.87;100.00;100508.66;7393261;19;20386;-53
2022/08/24 08:09:20;;;;;;;8.03;3.53;;;;;;;20.86;100.00;100533.13;7386511;19;20418;-58
2022/08/24 08:11:49;;;;;;;17.57;8.90;;;;;;;20.97;100.00;100553.19;7392835;19;20388;-58
2022/08/24 08:14:21;;;;;;;7.67;3.93;;;;;;;21.09;100.00;100563.63;7385847;19;20415;-56
2022/08/24 08:16:51;;;;;;;7.50;4.27;;;;;;;21.20;100.00;100588.91;7399876;19;20390;-52
2022/08/24 08:19:20;;;;;;;6.37;4.03;;;;;;;21.27;100.00;100603.78;7392380;19;20425;-53
2022/08/24 08:24:39;;;;;;;16.37;8.53;;;;;;;21.54;100.00;100614.97;7394779;19;20435;-56
2022/08/24 08:27:08;;;;;;;38.90;20.33;;;;;;;21.68;100.00;100623.63;7400477;19;20391;-56
2022/08/24 08:29:42;;;;;;;7.77;4.30;;;;;;;21.77;100.00;100633.25;7393952;19;20406;-56
2022/08/24 08:32:15;;;;;;;7.67;3.90;;;;;;;21.83;100.00;100658.56;7400153;19;20910;-56
2022/08/24 08:34:45;;;;;;;6.50;3.50;;;;;;;21.84;100.00;100678.72;7392936;19;20423;-55
2022/08/24 08:37:16;;;;;;;13.00;6.70;;;;;;;22.01;100.00;100685.59;7399987;19;20398;-59
2022/08/24 08:39:46;;;;;;;17.33;6.33;;;;;;;22.05;100.00;100700.47;7393378;19;20414;-55
2022/08/24 08:42:35;;;;;;;6.77;4.20;;;;;;;22.12;100.00;100712.66;7399774;19;20415;-54
2022/08/24 08:45:26;;;;;;;9.07;4.27;;;;;;;22.33;100.00;100714.25;7393437;19;21001;-58
2022/08/24 08:48:25;;;;;;;5.77;3.70;;;;;;;22.47;100.00;100737.81;7399663;19;20394;-58
2022/08/24 08:51:10;;;;;;;6.70;3.53;;;;;;;22.48;100.00;100757.94;7396602;19;20941;-55
2022/08/24 08:54:03;;;;;;;9.57;3.90;;;;;;;22.54;100.00;100769.34;7390378;19;20929;-56
2022/08/24 08:56:37;;;;;;;7.27;5.00;;;;;;;22.59;100.00;100781.53;7398092;19;20403;-56
2022/08/24 08:59:16;;;;;;;7.90;4.03;;;;;;;22.66;100.00;100800.75;7390528;19;20435;-56
2022/08/24 09:01:55;;;;;;;10.40;3.30;;;;;;;22.77;100.00;100809.44;7399194;19;20387;-51
2022/08/24 09:04:57;;;;;;;15.00;4.97;;;;;;;22.85;100.00;100805.88;7393251;19;20450;-54
2022/08/24 09:07:35;;;;;;;8.10;4.20;;;;;;;22.91;100.00;100821.59;7401528;19;20399;-57
2022/08/24 09:10:20;;;;;;;8.40;3.87;;;;;;;23.04;100.00;100825.00;7392144;19;20767;-55
2022/08/24 09:13:00;;;;;;;7.03;3.63;;;;;;;23.15;100.00;100844.19;7400292;19;20394;-55
2022/08/24 09:15:44;;;;;;;5.57;3.70;;;;;;;23.24;100.00;100856.41;7397860;19;20403;-53
2022/08/24 09:18:29;;;;;;;9.33;4.17;;;;;;;23.28;100.00;100870.41;7392189;19;20390;-51
2022/08/24 09:21:17;;;;;;;6.53;3.73;;;;;;;23.36;100.00;100851.91;7398748;19;20388;-52
2022/08/24 09:23:52;;;;;;;5.70;3.67;;;;;;;23.45;100.00;100883.41;7390102;19;20407;-53
2022/08/24 09:26:27;;;;;;;8.20;4.20;;;;;;;23.46;100.00;100893.94;7398384;19;20383;-59
2022/08/24 09:29:05;;;;;;;9.57;4.00;;;;;;;23.64;100.00;100893.75;7390469;19;20422;-58
2022/08/24 09:31:51;;;;;;;15.33;8.23;;;;;;;23.89;100.00;100914.56;7398432;19;20725;-54
2022/08/24 09:34:34;;;;;;;7.67;4.50;;;;;;;23.95;100.00;100927.66;7390977;19;20421;-55
2022/08/24 09:37:12;;;;;;;6.23;3.50;;;;;;;24.08;100.00;100933.69;7397704;19;20390;-59
2022/08/24 09:40:00;;;;;;;11.30;3.60;;;;;;;24.09;100.00;100948.63;7389772;19;20435;-56
2022/08/24 09:43:23;;;;;;;7.47;4.03;;;;;;;24.15;100.00;100974.91;7397600;19;20401;-54
2022/08/24 09:46:20;;;;;;;6.97;5.17;;;;;;;24.16;100.00;101003.00;7394678;19;20419;-53
2022/08/24 09:49:25;;;;;;;8.63;3.63;;;;;;;24.16;100.00;101007.38;7390145;19;20506;-48
2022/08/24 09:52:15;;;;;;;7.87;3.63;;;;;;;24.34;100.00;101006.28;7395176;19;20387;-57
2022/08/24 09:55:10;;;;;;;7.17;3.50;;;;;;;24.39;100.00;101030.84;7385922;19;20414;-59
2022/08/24 09:57:58;;;;;;;5.40;2.80;;;;;;;24.36;100.00;101044.94;7397394;19;20386;-53
2022/08/24 10:00:33;;;;;;;6.53;2.97;;;;;;;24.59;100.00;101059.63;7394819;19;20430;-57
2022/08/24 10:03:09;;;;;;;10.20;4.53;;;;;;;24.68;100.00;101104.31;7390718;19;20383;-54
2022/08/24 10:05:55;;;;;;;7.90;3.30;;;;;;;24.35;100.00;101106.44;7396658;19;20751;-55
2022/08/24 10:08:36;;;;;;;7.20;3.47;;;;;;;24.36;100.00;101078.34;7388725;19;20771;-58
2022/08/24 10:11:14;;;;;;;6.00;2.80;;;;;;;24.35;100.00;101138.09;7396894;19;20391;-58
2022/08/24 10:13:52;;;;;;;5.90;2.77;;;;;;;24.35;100.00;101130.19;7387494;19;20794;-53
2022/08/24 10:16:31;;;;;;;11.13;3.60;;;;;;;24.29;100.00;101109.16;7396721;19;20388;-56
2022/08/24 10:19:10;;;;;;;6.73;3.30;;;;;;;24.57;100.00;101093.06;7385402;19;20422;-57
2022/08/24 10:21:49;;;;;;;8.77;4.37;;;;;;;24.80;100.00;101103.34;7400917;19;20387;-54
2022/08/24 10:24:49;;;;;;;14.60;7.43;;;;;;;25.03;100.00;101131.19;7386616;19;20568;-56
2022/08/24 10:27:28;;;;;;;22.03;10.30;;;;;;;25.16;100.00;101149.50;7396497;19;20378;-57
2022/08/24 10:30:20;;;;;;;8.37;4.27;;;;;;;25.19;100.00;101155.66;7390756;19;20443;-56
2022/08/24 10:33:08;;;;;;;15.27;6.80;;;;;;;25.47;100.00;101160.53;7395417;19;20392;-54
2022/08/24 10:35:40;;;;;;;7.90;4.07;;;;;;;25.57;100.00;101187.72;7394716;19;20415;-60
2022/08/24 10:41:37;;;;;;;9.70;5.63;;;;;;;25.69;100.00;101178.75;7393898;19;20388;-56
2022/08/24 10:44:28;;;;;;;17.67;8.37;;;;;;;25.94;100.00;101181.00;7387546;19;20904;-56
2022/08/24 10:47:01;;;;;;;14.60;5.83;;;;;;;26.07;100.00;101199.31;7395662;19;20379;-57
2022/08/24 10:50:18;;;;;;;9.37;5.27;;;;;;;25.86;100.00;101247.22;7388939;19;20435;-54
2022/08/24 10:53:14;;;;;;;7.00;3.50;;;;;;;25.91;100.00;101233.91;7394945;19;20379;-51
2022/08/24 10:55:45;;;;;;;10.73;5.17;;;;;;;26.21;100.00;101257.25;7398703;19;20437;-59
2022/08/24 10:58:56;;;;;;;18.40;9.30;;;;;;;26.20;100.00;101280.16;7388963;19;20383;-52
2022/08/24 11:01:30;;;;;;;12.93;6.20;;;;;;;25.95;100.00;101293.75;7393500;19;20406;-57
2022/08/24 11:04:07;;;;;;;8.23;4.37;;;;;;;26.09;100.00;101325.28;7389178;19;20435;-53
2022/08/24 11:06:39;;;;;;;17.37;9.27;;;;;;;26.33;100.00;101320.56;7395599;19;20384;-54
2022/08/24 11:09:11;;;;;;;15.57;6.90;;;;;;;26.18;100.00;101305.75;7389114;19;20434;-52
2022/08/24 11:11:49;;;;;;;14.60;8.03;;;;;;;26.29;100.00;101309.16;7394747;19;20972;-56
2022/08/24 11:14:30;;;;;;;13.70;7.80;;;;;;;26.40;100.00;101298.41;7387202;19;20403;-57
2022/08/24 11:17:16;;;;;;;11.20;4.43;;;;;;;26.40;100.00;101326.63;7394738;19;20413;-56
2022/08/24 11:19:46;;;;;;;8.20;4.30;;;;;;;26.56;100.00;101317.53;7384980;19;20434;-55
2022/08/24 11:22:32;;;;;;;9.10;3.80;;;;;;;26.52;100.00;101346.72;7393615;19;20395;-55
2022/08/24 11:25:03;;;;;;;17.80;9.13;;;;;;;26.53;100.00;101338.78;7387369;19;20406;-57
2022/08/24 11:27:36;;;;;;;16.00;6.40;;;;;;;26.49;100.00;101365.28;7394514;19;20380;-54
2022/08/24 11:30:14;;;;;;;10.87;5.30;;;;;;;26.50;100.00;101381.13;7387791;19;20756;-58
2022/08/24 11:32:46;;;;;;;10.83;4.10;;;;;;;26.45;100.00;101406.75;7393913;19;20443;-56
2022/08/24 11:35:23;;;;;;;6.73;2.93;;;;;;;26.29;100.00;101404.34;7387134;19;20415;-58
2022/08/24 11:37:55;;;;;;;11.40;5.70;;;;;;;26.56;100.00;101388.97;7394157;19;20384;-55
2022/08/24 11:40:29;;;;;;;17.57;8.93;;;;;;;26.75;100.00;101370.16;7386790;19;20431;-53
2022/08/24 11:43:21;;;;;;;11.53;6.57;;;;;;;26.85;100.00;101380.59;7393157;19;20392;-56
2022/08/24 11:46:05;;;;;;;8.63;3.97;;;;;;;26.85;100.00;101380.59;7393872;19;20490;-57
2022/08/24 11:48:41;;;;;;;17.90;9.27;;;;;;;26.74;100.00;101368.41;7387636;19;20411;-59
2022/08/24 11:51:20;;;;;;;9.07;4.77;;;;;;;26.92;100.00;101363.75;7391598;19;20454;-53
2022/08/24 11:54:00;;;;;;;6.30;3.17;;;;;;;26.69;100.00;101364.97;7385870;19;20437;-55
2022/08/24 11:56:35;;;;;;;6.97;3.23;;;;;;;26.87;100.00;101373.50;7393330;19;20455;-59
2022/08/24 11:59:08;;;;;;;13.20;6.73;;;;;;;27.09;100.00;101387.28;7384744;19;20499;-56